Time;durP1;ratioP1;P1;durP2;ratioP2;P2;SDS_P1;SDS_P2;PMS_P1;PMS_P2;Temp;Humidity;BMP_temperature;BMP_pressure;BME280_temperature;BME280_humidity;BME280_pressure;Samples;Min_cycle;Max_cycle;Signal;HPM_P1;HPM_P2
2023/07/24 00:00:24;;;;;;;0.17;0.17;;;22.90;99.90;;;;;;5077359;28;20027;-83
2023/07/24 00:02:50;;;;;;;0.10;0.10;;;23.10;99.90;;;;;;5077395;28;20012;-75
2023/07/24 00:05:16;;;;;;;0.47;0.47;;;23.10;99.90;;;;;;5077789;28;20020;-75
2023/07/24 00:07:41;;;;;;;0.10;0.10;;;23.30;99.90;;;;;;5077471;28;20468;-82
2023/07/24 00:10:07;;;;;;;2.60;0.88;;;24.30;99.90;;;;;;5077307;28;20119;-78
2023/07/24 00:12:33;;;;;;;0.55;0.55;;;22.50;99.90;;;;;;5077335;28;20028;-75
2023/07/24 00:14:59;;;;;;;5.78;1.85;;;22.80;99.90;;;;;;5077180;28;20069;-83
2023/07/24 00:17:25;;;;;;;0.10;0.10;;;22.00;99.90;;;;;;5077432;28;20012;-79
2023/07/24 00:19:51;;;;;;;0.10;0.10;;;21.10;99.90;;;;;;5077632;28;20617;-78
2023/07/24 00:22:17;;;;;;;0.45;0.45;;;22.00;99.90;;;;;;5077720;28;20048;-79
2023/07/24 00:24:43;;;;;;;0.75;0.75;;;22.50;99.90;;;;;;5077125;28;20101;-77
2023/07/24 00:27:08;;;;;;;0.10;0.10;;;22.30;99.90;;;;;;5077169;28;20066;-76
2023/07/24 00:29:34;;;;;;;0.80;0.80;;;21.90;99.90;;;;;;5076987;28;20036;-75
2023/07/24 00:32:00;;;;;;;0.10;0.10;;;21.20;99.90;;;;;;5081039;28;20023;-76
2023/07/24 00:34:25;;;;;;;0.22;0.22;;;22.30;99.90;;;;;;5081237;28;20012;-80
2023/07/24 00:36:51;;;;;;;0.25;0.25;;;20.80;99.90;;;;;;5081351;28;20103;-81
2023/07/24 00:39:17;;;;;;;0.75;0.75;;;20.80;99.90;;;;;;5063607;28;20609;-75
2023/07/24 00:41:43;;;;;;;0.17;0.17;;;20.90;99.90;;;;;;5081162;28;20024;-77
2023/07/24 00:44:09;;;;;;;0.10;0.10;;;21.40;99.90;;;;;;5081010;28;20103;-74
2023/07/24 00:46:36;;;;;;;0.10;0.10;;;21.20;99.90;;;;;;5080989;28;20788;-80
2023/07/24 00:49:04;;;;;;;0.10;0.10;;;20.90;99.90;;;;;;5081050;28;20055;-73
2023/07/24 00:51:30;;;;;;;0.10;0.10;;;20.70;99.90;;;;;;5081009;28;20028;-73
2023/07/24 00:53:59;;;;;;;0.10;0.10;;;20.60;99.90;;;;;;5063200;28;20020;-77
2023/07/24 00:56:27;;;;;;;0.10;0.10;;;20.50;99.90;;;;;;5081313;28;20044;-80
2023/07/24 00:58:55;;;;;;;0.10;0.10;;;20.30;99.90;;;;;;5081238;28;20020;-79
2023/07/24 01:01:22;;;;;;;0.20;0.20;;;22.30;99.90;;;;;;5080879;28;20065;-76
2023/07/24 01:03:48;;;;;;;0.05;0.05;;;19.90;99.90;;;;;;5080930;28;20027;-80
2023/07/24 01:06:14;;;;;;;2.17;2.08;;;20.40;99.90;;;;;;5080830;28;20101;-75
2023/07/24 01:08:40;;;;;;;0.10;0.10;;;20.50;99.90;;;;;;5081009;28;20934;-77
2023/07/24 01:11:17;;;;;;;0.10;0.10;;;20.40;99.90;;;;;;5081761;28;20028;-75
2023/07/24 01:14:05;;;;;;;2.55;2.35;;;20.30;99.90;;;;;;5082029;28;20592;-76
2023/07/24 01:16:37;;;;;;;5.68;5.28;;;20.10;99.90;;;;;;5082391;28;20165;-81
2023/07/24 01:19:09;;;;;;;0.05;0.05;;;20.00;99.90;;;;;;5082690;28;20288;-75
2023/07/24 01:21:52;;;;;;;0.10;0.10;;;20.00;99.90;;;;;;5081031;28;20028;-76
2023/07/24 01:24:33;;;;;;;0.10;0.10;;;20.00;99.90;;;;;;5081202;28;20539;-83
2023/07/24 01:26:59;;;;;;;0.03;0.03;;;19.90;99.90;;;;;;5062671;28;20016;-77
2023/07/24 01:29:25;;;;;;;0.10;0.10;;;19.80;99.90;;;;;;5080831;28;20099;-73
2023/07/24 01:31:50;;;;;;;0.10;0.10;;;21.60;99.90;;;;;;5080134;28;20166;-75
2023/07/24 01:34:16;;;;;;;0.50;0.50;;;19.90;99.90;;;;;;5062218;28;20670;-74
2023/07/24 01:36:42;;;;;;;0.10;0.10;;;19.10;99.90;;;;;;5080271;28;20028;-74
2023/07/24 01:39:09;;;;;;;0.10;0.10;;;20.10;99.90;;;;;;5061855;28;20039;-75
2023/07/24 01:41:35;;;;;;;1.70;1.63;;;20.00;99.90;;;;;;5079251;28;20154;-79
2023/07/24 01:44:01;;;;;;;0.10;0.10;;;17.80;99.90;;;;;;5079635;28;20100;-72
2023/07/24 01:46:26;;;;;;;0.10;0.10;;;19.60;99.90;;;;;;5080150;28;20024;-73
2023/07/24 01:48:52;;;;;;;0.10;0.10;;;19.60;99.90;;;;;;5079995;28;20016;-77
2023/07/24 01:51:18;;;;;;;0.10;0.10;;;19.90;99.90;;;;;;5080081;28;20671;-75
2023/07/24 01:53:43;;;;;;;2.72;2.22;;;20.00;99.90;;;;;;5079728;28;20646;-79
2023/07/24 01:56:09;;;;;;;0.10;0.10;;;20.20;99.90;;;;;;5079444;28;20062;-73
2023/07/24 01:58:35;;;;;;;0.20;0.20;;;20.10;99.90;;;;;;5079626;28;20150;-75
2023/07/24 02:01:00;;;;;;;0.10;0.10;;;20.00;99.90;;;;;;5079520;28;20108;-73
2023/07/24 02:03:26;;;;;;;5.05;4.85;;;20.00;99.90;;;;;;5080145;28;20016;-84
2023/07/24 02:05:52;;;;;;;0.45;0.45;;;19.90;99.90;;;;;;5079494;28;20035;-76
2023/07/24 02:08:17;;;;;;;1.20;1.20;;;20.40;99.90;;;;;;5079530;28;20694;-76
2023/07/24 02:10:43;;;;;;;0.10;0.10;;;20.40;99.90;;;;;;5080024;28;20032;-77
2023/07/24 02:13:09;;;;;;;0.10;0.10;;;21.00;99.90;;;;;;5079536;28;20502;-76
2023/07/24 02:15:36;;;;;;;0.10;0.10;;;21.00;99.90;;;;;;5079386;28;20017;-76
2023/07/24 02:18:01;;;;;;;0.08;0.08;;;20.70;99.90;;;;;;5079315;28;20024;-77
2023/07/24 02:20:27;;;;;;;0.40;0.40;;;20.40;99.90;;;;;;5079260;28;20030;-74
2023/07/24 02:22:53;;;;;;;0.10;0.10;;;19.90;99.90;;;;;;5079693;28;20044;-77
2023/07/24 02:25:19;;;;;;;0.05;0.05;;;19.80;99.90;;;;;;5079281;28;20571;-78
2023/07/24 02:27:44;;;;;;;0.10;0.10;;;20.10;99.90;;;;;;5079517;28;20027;-75
2023/07/24 02:30:10;;;;;;;0.10;0.10;;;20.00;99.90;;;;;;5078993;28;20046;-75
2023/07/24 02:32:36;;;;;;;5.95;1.85;;;19.90;99.90;;;;;;5079321;28;20027;-78
2023/07/24 02:35:02;;;;;;;0.13;0.13;;;19.70;99.90;;;;;;5079160;28;20024;-76
2023/07/24 02:37:28;;;;;;;0.20;0.20;;;19.60;99.90;;;;;;5061269;28;20067;-76
2023/07/24 02:39:54;;;;;;;0.63;0.63;;;19.60;99.90;;;;;;5079188;28;20029;-75
2023/07/24 02:42:20;;;;;;;0.10;0.10;;;19.50;99.90;;;;;;5079107;28;20024;-74
2023/07/24 02:44:46;;;;;;;0.10;0.10;;;19.50;99.90;;;;;;5078925;28;20305;-74
2023/07/24 02:47:11;;;;;;;0.10;0.10;;;19.50;99.90;;;;;;5060622;28;20029;-73
2023/07/24 02:49:37;;;;;;;0.10;0.10;;;19.80;99.90;;;;;;5078775;28;20627;-73
2023/07/24 02:52:03;;;;;;;0.10;0.10;;;20.00;99.90;;;;;;5078742;28;20131;-75
2023/07/24 02:54:29;;;;;;;0.10;0.10;;;20.80;99.90;;;;;;5078478;28;20105;-76
2023/07/24 02:56:54;;;;;;;0.05;0.05;;;20.90;99.90;;;;;;5078898;28;20063;-77
2023/07/24 02:59:20;;;;;;;0.40;0.40;;;21.20;99.90;;;;;;5078760;28;20508;-78
2023/07/24 03:01:46;;;;;;;0.30;0.30;;;21.00;99.90;;;;;;5078196;28;20020;-76
2023/07/24 03:04:12;;;;;;;0.20;0.20;;;21.20;99.90;;;;;;5078569;28;20105;-73
2023/07/24 03:06:39;;;;;;;0.10;0.10;;;21.50;99.90;;;;;;5078160;28;20115;-80
2023/07/24 03:09:05;;;;;;;0.00;0.00;;;21.50;99.90;;;;;;5078586;28;20031;-79
2023/07/24 03:11:31;;;;;;;0.10;0.10;;;21.50;99.90;;;;;;5078324;28;20029;-73
2023/07/24 03:13:56;;;;;;;0.10;0.10;;;21.30;99.90;;;;;;5078721;28;20592;-74
2023/07/24 03:16:22;;;;;;;0.10;0.10;;;20.80;99.90;;;;;;5078644;28;20050;-74
2023/07/24 03:18:48;;;;;;;0.10;0.10;;;21.00;99.90;;;;;;5060194;28;20012;-75
2023/07/24 03:21:14;;;;;;;12.45;1.88;;;21.00;99.90;;;;;;5078429;28;20024;-74
2023/07/24 03:23:39;;;;;;;0.10;0.10;;;21.20;99.90;;;;;;5078119;28;20181;-81
2023/07/24 03:26:05;;;;;;;0.03;0.03;;;20.80;99.90;;;;;;5078133;28;20054;-73
2023/07/24 03:28:31;;;;;;;0.15;0.15;;;20.70;99.90;;;;;;5078099;28;20024;-73
2023/07/24 03:30:57;;;;;;;0.10;0.10;;;20.90;99.90;;;;;;5077856;28;20024;-76
2023/07/24 03:33:23;;;;;;;0.20;0.20;;;20.60;99.90;;;;;;5078346;28;20178;-75
2023/07/24 03:35:48;;;;;;;0.10;0.10;;;20.50;99.90;;;;;;5059579;28;20529;-80
2023/07/24 03:38:14;;;;;;;0.10;0.10;;;21.00;99.90;;;;;;5078114;28;20517;-81
2023/07/24 03:40:40;;;;;;;0.10;0.10;;;21.10;99.90;;;;;;5059794;28;20028;-73
2023/07/24 03:43:05;;;;;;;0.10;0.10;;;20.60;99.90;;;;;;5078543;28;20024;-75
2023/07/24 03:45:31;;;;;;;6.35;5.78;;;20.70;99.90;;;;;;5077061;28;20016;-74
2023/07/24 03:47:57;;;;;;;0.10;0.10;;;21.30;99.90;;;;;;5077795;28;20016;-81
2023/07/24 03:50:23;;;;;;;0.10;0.10;;;20.60;99.90;;;;;;5078107;28;20049;-80
2023/07/24 03:52:49;;;;;;;0.10;0.10;;;20.70;99.90;;;;;;5077910;28;20023;-75
2023/07/24 03:55:14;;;;;;;0.10;0.10;;;21.00;99.90;;;;;;5078046;28;20028;-77
2023/07/24 03:57:40;;;;;;;0.10;0.10;;;20.80;99.90;;;;;;5077804;28;20024;-77
2023/07/24 04:00:07;;;;;;;1.20;1.10;;;20.60;99.90;;;;;;5077747;28;20032;-75
2023/07/24 04:02:32;;;;;;;0.10;0.10;;;21.00;99.90;;;;;;5077534;28;20052;-78
2023/07/24 04:04:58;;;;;;;1.30;1.20;;;20.90;99.90;;;;;;5077157;28;20040;-80
2023/07/24 04:07:24;;;;;;;0.10;0.10;;;20.40;99.90;;;;;;5077248;28;20035;-74
2023/07/24 04:09:50;;;;;;;0.10;0.10;;;20.90;99.90;;;;;;5060322;28;20020;-73
2023/07/24 04:12:15;;;;;;;0.10;0.10;;;20.30;99.90;;;;;;5077636;28;20338;-75
2023/07/24 04:14:41;;;;;;;0.10;0.10;;;19.90;99.90;;;;;;5078556;28;20604;-75
2023/07/24 04:17:07;;;;;;;0.10;0.10;;;19.90;99.90;;;;;;5059329;28;20650;-74
2023/07/24 04:19:32;;;;;;;0.10;0.10;;;19.90;99.90;;;;;;5059836;28;20186;-79
2023/07/24 04:21:58;;;;;;;0.60;0.57;;;19.90;99.90;;;;;;5077816;28;20101;-84
2023/07/24 04:24:24;;;;;;;0.10;0.10;;;20.50;99.90;;;;;;5078192;28;20015;-77
2023/07/24 04:26:49;;;;;;;0.10;0.10;;;20.40;99.90;;;;;;5077776;28;20028;-83
2023/07/24 04:29:15;;;;;;;0.10;0.10;;;20.60;99.90;;;;;;5077637;28;20035;-78
2023/07/24 04:31:41;;;;;;;0.10;0.10;;;21.10;99.90;;;;;;5077266;28;20028;-80
2023/07/24 04:34:07;;;;;;;0.10;0.10;;;21.30;99.90;;;;;;5077205;28;20076;-80
2023/07/24 04:36:32;;;;;;;0.10;0.10;;;21.40;99.90;;;;;;5077594;28;20104;-79
2023/07/24 04:38:58;;;;;;;0.30;0.30;;;21.60;99.90;;;;;;5077690;28;20043;-75
2023/07/24 04:41:24;;;;;;;0.10;0.10;;;21.90;99.90;;;;;;5077601;28;20031;-75
2023/07/24 04:43:49;;;;;;;0.10;0.10;;;23.70;99.90;;;;;;5077831;28;20024;-77
2023/07/24 04:46:15;;;;;;;0.10;0.10;;;22.20;99.90;;;;;;5077703;28;20032;-78
2023/07/24 04:48:41;;;;;;;0.85;0.85;;;22.40;99.90;;;;;;5078096;28;20012;-77
2023/07/24 04:51:07;;;;;;;0.10;0.10;;;22.10;99.90;;;;;;5077367;28;20120;-80
2023/07/24 04:53:32;;;;;;;3.67;2.95;;;22.30;99.90;;;;;;5077675;28;20160;-80
2023/07/24 04:55:58;;;;;;;0.10;0.10;;;22.20;99.90;;;;;;5077032;28;20202;-77
2023/07/24 04:58:24;;;;;;;5.18;4.82;;;22.20;99.90;;;;;;5077249;28;20039;-75
2023/07/24 05:00:49;;;;;;;1.75;1.65;;;22.20;99.90;;;;;;5077385;28;20685;-76
2023/07/24 05:03:17;;;;;;;0.10;0.10;;;22.30;99.90;;;;;;5058649;28;20548;-81
2023/07/24 05:05:42;;;;;;;0.85;0.85;;;22.40;99.90;;;;;;5077312;28;20073;-74
2023/07/24 05:08:08;;;;;;;0.38;0.38;;;22.60;99.90;;;;;;5076982;28;20543;-76
2023/07/24 05:10:37;;;;;;;0.10;0.10;;;22.50;99.90;;;;;;5076959;28;20040;-77
2023/07/24 05:13:03;;;;;;;0.10;0.10;;;22.50;99.90;;;;;;5077135;28;20218;-82
2023/07/24 05:15:28;;;;;;;0.35;0.35;;;22.60;99.90;;;;;;5077004;28;20148;-80
2023/07/24 05:17:54;;;;;;;0.38;0.38;;;22.10;99.90;;;;;;5080531;28;20020;-78
2023/07/24 05:20:20;;;;;;;0.20;0.20;;;22.30;99.90;;;;;;5080784;28;20718;-80
2023/07/24 05:22:46;;;;;;;0.93;0.82;;;22.20;99.90;;;;;;5080843;28;20658;-81
2023/07/24 05:25:12;;;;;;;0.70;0.70;;;21.90;99.90;;;;;;5080647;28;20193;-74
2023/07/24 05:27:37;;;;;;;0.10;0.10;;;22.10;99.90;;;;;;5080258;28;20051;-74
2023/07/24 05:30:04;;;;;;;0.10;0.10;;;22.10;99.90;;;;;;5080633;28;20016;-78
2023/07/24 05:32:30;;;;;;;0.10;0.10;;;21.80;99.90;;;;;;5080448;28;20020;-75
2023/07/24 05:34:56;;;;;;;6.45;4.95;;;22.00;99.90;;;;;;5080431;28;20039;-77
2023/07/24 05:37:21;;;;;;;0.10;0.10;;;22.10;99.90;;;;;;5080352;28;20024;-78
2023/07/24 05:39:47;;;;;;;0.45;0.45;;;22.40;99.90;;;;;;5080058;28;20024;-82
2023/07/24 05:42:13;;;;;;;0.10;0.10;;;22.60;99.90;;;;;;5080175;28;20023;-75
2023/07/24 05:44:38;;;;;;;0.10;0.10;;;22.50;99.90;;;;;;5080271;28;20674;-79
2023/07/24 05:47:04;;;;;;;0.10;0.10;;;22.50;99.90;;;;;;5080438;28;20475;-77
2023/07/24 05:49:30;;;;;;;0.10;0.10;;;22.70;99.90;;;;;;5080420;28;20533;-76
2023/07/24 05:51:56;;;;;;;1.00;0.95;;;22.60;99.90;;;;;;5080032;28;20121;-75
2023/07/24 05:54:22;;;;;;;0.15;0.15;;;22.80;99.90;;;;;;5079810;28;20024;-74
2023/07/24 05:56:48;;;;;;;0.63;0.63;;;23.20;99.90;;;;;;5079817;28;20106;-76
2023/07/24 05:59:14;;;;;;;2.40;0.73;;;23.40;99.90;;;;;;5061879;28;20016;-77
2023/07/24 06:01:40;;;;;;;5.68;1.15;;;23.60;99.90;;;;;;5079894;28;20024;-74
2023/07/24 06:04:07;;;;;;;0.43;0.43;;;23.70;99.90;;;;;;5079745;28;20083;-74
2023/07/24 06:06:33;;;;;;;0.00;0.00;;;23.90;99.90;;;;;;5079291;28;20047;-73
2023/07/24 06:08:58;;;;;;;0.10;0.10;;;24.00;99.90;;;;;;5079860;28;20025;-77
2023/07/24 06:11:26;;;;;;;0.22;0.22;;;24.10;99.90;;;;;;5079332;28;20041;-76
2023/07/24 06:13:52;;;;;;;0.28;0.28;;;24.20;99.90;;;;;;5079759;28;20008;-75
2023/07/24 06:16:18;;;;;;;0.10;0.10;;;24.30;99.90;;;;;;5061565;28;20016;-73
2023/07/24 06:18:44;;;;;;;1.20;1.10;;;24.40;99.90;;;;;;5080221;28;20030;-76
2023/07/24 06:21:10;;;;;;;0.10;0.10;;;24.50;99.90;;;;;;5079474;28;20518;-75
2023/07/24 06:23:36;;;;;;;0.25;0.22;;;24.60;99.90;;;;;;5079778;28;20105;-73
2023/07/24 06:26:01;;;;;;;1.88;1.77;;;24.70;99.90;;;;;;5079182;28;20718;-73
2023/07/24 06:28:28;;;;;;;0.10;0.10;;;24.70;99.90;;;;;;5078801;28;20020;-75
2023/07/24 06:30:54;;;;;;;0.00;0.00;;;24.80;99.90;;;;;;5079266;28;20034;-75
2023/07/24 06:33:21;;;;;;;0.30;0.30;;;24.90;99.90;;;;;;5079349;28;20012;-74
2023/07/24 06:35:49;;;;;;;1.55;1.05;;;25.10;99.90;;;;;;5079420;28;20058;-74
2023/07/24 06:38:15;;;;;;;0.10;0.10;;;24.80;99.90;;;;;;5079377;28;20029;-73
2023/07/24 06:40:41;;;;;;;0.10;0.10;;;24.80;99.90;;;;;;5078820;28;20018;-77
2023/07/24 06:43:06;;;;;;;0.20;0.20;;;24.90;99.90;;;;;;5079561;28;20081;-74
2023/07/24 06:45:32;;;;;;;4.03;1.55;;;25.10;99.90;;;;;;5079407;28;20703;-82
2023/07/24 06:47:58;;;;;;;0.08;0.08;;;25.20;99.90;;;;;;5079154;28;20020;-75
2023/07/24 06:50:24;;;;;;;2.17;0.85;;;25.30;99.90;;;;;;5079118;28;20032;-76
2023/07/24 06:52:51;;;;;;;0.20;0.20;;;25.50;99.90;;;;;;5079378;28;20031;-79
2023/07/24 06:55:17;;;;;;;1.38;1.27;;;25.50;99.90;;;;;;5080324;28;20048;-79
2023/07/24 06:57:43;;;;;;;11.38;9.30;;;25.60;99.90;;;;;;5079820;28;20024;-84
2023/07/24 07:00:11;;;;;;;1.25;0.90;;;25.90;99.90;;;;;;5061251;28;20029;-74
2023/07/24 07:02:37;;;;;;;0.77;0.75;;;25.80;99.90;;;;;;5062069;28;20660;-80
2023/07/24 07:05:04;;;;;;;0.95;0.95;;;25.90;99.90;;;;;;5079609;28;20025;-81
2023/07/24 07:07:30;;;;;;;0.17;0.17;;;26.20;99.90;;;;;;5079416;28;20225;-75
2023/07/24 07:09:56;;;;;;;0.10;0.10;;;26.10;99.90;;;;;;5078800;28;20124;-74
2023/07/24 07:12:22;;;;;;;2.05;1.95;;;26.20;99.90;;;;;;5078768;28;20738;-78
2023/07/24 07:14:48;;;;;;;0.57;0.40;;;26.20;99.90;;;;;;5078629;28;20519;-77
2023/07/24 07:17:14;;;;;;;0.10;0.10;;;26.20;99.90;;;;;;5078693;28;20111;-84
2023/07/24 07:19:39;;;;;;;0.17;0.10;;;26.20;99.90;;;;;;5078539;28;20013;-79
2023/07/24 07:22:05;;;;;;;0.00;0.00;;;26.20;99.90;;;;;;5078898;28;20020;-73
2023/07/24 07:24:31;;;;;;;2.40;1.05;;;26.30;99.90;;;;;;5079109;28;20028;-81
2023/07/24 07:26:57;;;;;;;1.63;0.82;;;26.30;99.90;;;;;;5078503;28;20565;-75
2023/07/24 07:29:23;;;;;;;0.10;0.10;;;26.30;99.90;;;;;;5079729;28;20024;-75
2023/07/24 07:31:48;;;;;;;0.40;0.40;;;26.40;99.90;;;;;;5079926;28;20035;-74
2023/07/24 07:34:14;;;;;;;2.05;1.00;;;26.40;99.90;;;;;;5082709;28;20020;-73
2023/07/24 07:36:40;;;;;;;0.35;0.32;;;26.50;99.90;;;;;;5083089;28;20170;-77
2023/07/24 07:39:05;;;;;;;0.50;0.50;;;26.50;99.90;;;;;;5065102;28;20524;-78
2023/07/24 07:41:31;;;;;;;0.20;0.20;;;26.70;99.90;;;;;;5080712;28;20085;-76
2023/07/24 07:43:57;;;;;;;0.40;0.40;;;26.80;99.90;;;;;;5079984;28;20028;-81
2023/07/24 07:46:23;;;;;;;1.70;1.52;;;26.50;99.90;;;;;;5078633;28;20150;-76
2023/07/24 07:48:49;;;;;;;0.20;0.20;;;26.80;99.90;;;;;;5077775;28;20681;-75
2023/07/24 07:51:15;;;;;;;0.00;0.00;;;27.00;99.90;;;;;;5059721;28;20043;-73
2023/07/24 07:53:41;;;;;;;1.52;1.42;;;27.20;99.90;;;;;;5078125;28;20638;-74
2023/07/24 07:56:07;;;;;;;0.10;0.10;;;27.40;99.90;;;;;;5077636;28;20043;-77
2023/07/24 07:58:32;;;;;;;0.30;0.30;;;27.60;99.90;;;;;;5077847;28;20012;-75
2023/07/24 08:00:58;;;;;;;2.33;2.13;;;27.70;99.90;;;;;;5078128;28;20613;-76
2023/07/24 08:03:24;;;;;;;0.20;0.20;;;27.90;99.80;;;;;;5077668;28;20663;-77
2023/07/24 08:05:50;;;;;;;0.17;0.17;;;28.00;99.50;;;;;;5077506;28;20024;-75
2023/07/24 08:08:15;;;;;;;0.57;0.57;;;28.00;99.70;;;;;;5077408;28;20024;-75
2023/07/24 08:10:41;;;;;;;0.03;0.03;;;28.20;98.80;;;;;;5077894;28;20092;-77
2023/07/24 08:13:09;;;;;;;0.05;0.05;;;28.30;98.60;;;;;;5077322;28;20716;-81
2023/07/24 08:15:36;;;;;;;0.10;0.10;;;28.60;98.50;;;;;;5077663;28;20032;-77
2023/07/24 08:18:04;;;;;;;0.20;0.20;;;28.70;98.30;;;;;;5077646;28;20016;-75
2023/07/24 08:20:30;;;;;;;0.25;0.25;;;28.80;97.60;;;;;;5077806;28;20130;-75
2023/07/24 08:22:56;;;;;;;2.65;1.75;;;29.10;97.20;;;;;;5077506;28;20047;-77
2023/07/24 08:25:21;;;;;;;0.20;0.20;;;29.10;95.80;;;;;;5059959;28;20048;-75
2023/07/24 08:27:47;;;;;;;0.10;0.10;;;29.20;95.70;;;;;;5077785;28;20024;-79
2023/07/24 08:30:13;;;;;;;0.20;0.20;;;29.40;95.30;;;;;;5076967;28;20756;-76
2023/07/24 08:32:39;;;;;;;0.05;0.05;;;29.60;94.90;;;;;;5077352;28;20028;-79
2023/07/24 08:35:06;;;;;;;0.20;0.20;;;29.70;94.60;;;;;;5077569;28;20655;-78
2023/07/24 08:37:31;;;;;;;1.63;1.30;;;29.80;93.70;;;;;;5077180;28;20020;-75
2023/07/24 08:39:57;;;;;;;0.10;0.10;;;29.90;93.30;;;;;;5077580;28;20028;-80
2023/07/24 08:42:24;;;;;;;0.20;0.20;;;29.90;93.70;;;;;;5077283;28;20047;-75
2023/07/24 08:44:51;;;;;;;0.03;0.03;;;30.00;93.60;;;;;;5077045;28;20126;-79
2023/07/24 08:47:18;;;;;;;0.20;0.20;;;30.10;93.60;;;;;;5076972;28;20078;-80
2023/07/24 08:49:46;;;;;;;0.00;0.00;;;30.10;93.00;;;;;;5076991;28;20050;-81
2023/07/24 08:52:12;;;;;;;0.32;0.20;;;30.20;92.40;;;;;;5079738;28;20043;-78
2023/07/24 08:54:38;;;;;;;0.40;0.40;;;30.30;92.40;;;;;;5081397;28;20024;-79
2023/07/24 08:57:06;;;;;;;0.10;0.10;;;30.40;92.50;;;;;;5082630;28;20048;-82
2023/07/24 08:59:32;;;;;;;0.30;0.28;;;30.70;92.20;;;;;;5063774;28;20013;-76
2023/07/24 09:01:58;;;;;;;0.20;0.20;;;30.80;91.60;;;;;;5081912;28;20054;-75
2023/07/24 09:04:24;;;;;;;0.30;0.30;;;30.90;90.90;;;;;;5081678;28;20016;-82
2023/07/24 09:06:50;;;;;;;1.08;0.95;;;30.60;90.70;;;;;;5081791;28;20059;-78
2023/07/24 09:09:16;;;;;;;1.65;1.20;;;31.00;90.80;;;;;;5081367;28;20642;-76
2023/07/24 09:11:50;;;;;;;0.65;0.32;;;29.40;88.30;;;;;;5081956;28;20031;-81
2023/07/24 09:14:23;;;;;;;0.35;0.17;;;31.40;88.60;;;;;;5083218;28;20019;-80
2023/07/24 09:16:50;;;;;;;1.65;1.08;;;31.60;88.90;;;;;;5081857;28;20528;-77
2023/07/24 09:19:19;;;;;;;0.20;0.20;;;31.60;88.20;;;;;;5082778;28;20013;-85
2023/07/24 09:21:45;;;;;;;1.83;1.00;;;31.70;86.90;;;;;;5083667;28;20024;-77
2023/07/24 09:24:12;;;;;;;0.85;0.55;;;31.80;85.60;;;;;;5081325;28;20028;-77
2023/07/24 09:26:58;;;;;;;2.72;1.52;;;31.90;84.80;;;;;;5081234;28;20158;-76
2023/07/24 09:29:31;;;;;;;1.40;1.40;;;32.10;84.90;;;;;;5081973;28;20032;-80
2023/07/24 09:31:58;;;;;;;3.92;0.45;;;33.00;83.40;;;;;;5081198;28;20082;-76
2023/07/24 09:34:25;;;;;;;1.02;0.70;;;32.30;81.30;;;;;;5063229;28;20016;-77
2023/07/24 09:36:51;;;;;;;0.10;0.10;;;32.20;81.20;;;;;;5081099;28;20040;-75
2023/07/24 09:39:26;;;;;;;0.30;0.30;;;32.20;81.70;;;;;;5080938;28;20033;-90
2023/07/24 09:41:52;;;;;;;3.50;1.65;;;32.10;82.30;;;;;;5064866;28;20100;-77
2023/07/24 09:44:18;;;;;;;0.10;0.10;;;32.20;81.30;;;;;;5067759;28;20017;-89
2023/07/24 09:46:44;;;;;;;4.72;2.72;;;32.30;81.10;;;;;;5071923;28;20266;-76
2023/07/24 09:49:10;;;;;;;0.52;0.52;;;32.30;81.60;;;;;;5066204;28;20085;-78
2023/07/24 09:51:38;;;;;;;0.30;0.30;;;32.40;79.90;;;;;;5065284;28;20080;-88
2023/07/24 09:54:20;;;;;;;0.22;0.17;;;32.50;78.40;;;;;;5081829;28;20095;-77
2023/07/24 09:56:47;;;;;;;;;;;32.40;78.00;;;;;;5063908;28;20075;-84
2023/07/24 09:59:13;;;;;;;0.30;0.30;;;32.70;78.40;;;;;;5080832;28;19912;-77
2023/07/24 10:01:39;;;;;;;2.03;0.43;;;32.80;78.30;;;;;;5063023;28;20028;-84
2023/07/24 10:04:07;;;;;;;0.32;0.32;;;30.50;74.80;;;;;;5081022;28;20054;-78
2023/07/24 10:06:33;;;;;;;0.38;0.30;;;32.90;77.00;;;;;;5084365;28;20685;-76
2023/07/24 10:09:00;;;;;;;0.25;0.25;;;32.90;77.00;;;;;;5066820;28;20089;-73
2023/07/24 10:11:26;;;;;;;0.47;0.40;;;33.00;76.60;;;;;;5062703;28;20036;-77
2023/07/24 10:13:53;;;;;;;0.38;0.38;;;33.00;77.20;;;;;;5081697;28;20540;-77
2023/07/24 10:16:20;;;;;;;0.10;0.10;;;33.30;75.20;;;;;;5066704;28;20020;-76
2023/07/24 10:18:46;;;;;;;1.40;0.70;;;33.40;75.80;;;;;;5068486;28;20027;-79
2023/07/24 10:21:13;;;;;;;0.80;0.50;;;33.50;75.80;;;;;;5063112;28;20015;-76
2023/07/24 10:23:48;;;;;;;0.50;0.50;;;33.60;75.80;;;;;;5080898;28;20723;-77
2023/07/24 10:26:15;;;;;;;0.60;0.45;;;33.40;75.00;;;;;;5063215;28;20651;-76
2023/07/24 10:28:46;;;;;;;0.65;0.65;;;34.00;74.50;;;;;;5079985;28;20027;-76
2023/07/24 10:31:23;;;;;;;0.00;0.00;;;35.40;75.40;;;;;;5080357;28;20028;-76
2023/07/24 10:33:52;;;;;;;0.10;0.10;;;33.90;74.00;;;;;;5061722;28;20693;-76
2023/07/24 10:36:22;;;;;;;0.00;0.00;;;33.90;75.00;;;;;;5079142;28;20078;-79
2023/07/24 10:38:57;;;;;;;0.50;0.50;;;34.10;74.60;;;;;;5061843;28;20716;-76
2023/07/24 10:41:40;;;;;;;0.45;0.40;;;34.30;74.20;;;;;;5079983;28;20452;-78
2023/07/24 10:44:14;;;;;;;0.40;0.40;;;34.30;74.70;;;;;;5062019;28;20608;-78
2023/07/24 10:46:41;;;;;;;1.45;0.73;;;36.10;78.70;;;;;;5056116;28;20028;-85
2023/07/24 10:49:08;;;;;;;1.17;1.08;;;34.30;75.60;;;;;;5056935;28;20025;-73
2023/07/24 10:51:37;;;;;;;0.93;0.55;;;33.90;75.40;;;;;;5056669;28;20115;-77
2023/07/24 10:54:04;;;;;;;0.90;0.68;;;34.20;76.60;;;;;;5057231;28;20016;-77
2023/07/24 10:56:30;;;;;;;0.63;0.60;;;33.80;76.10;;;;;;5039622;28;20038;-78
2023/07/24 10:58:56;;;;;;;0.17;0.17;;;34.00;75.80;;;;;;5056345;28;20025;-75
2023/07/24 11:01:23;;;;;;;0.73;0.30;;;34.10;75.70;;;;;;5056079;28;20020;-82
2023/07/24 11:03:49;;;;;;;0.43;0.43;;;34.50;75.90;;;;;;5039028;28;20029;-80
2023/07/24 11:06:21;;;;;;;0.30;0.30;;;34.40;72.70;;;;;;5055869;28;20021;-76
2023/07/24 11:08:56;;;;;;;1.92;0.60;;;34.20;73.40;;;;;;5056171;28;20040;-76
2023/07/24 11:11:27;;;;;;;1.10;0.80;;;34.10;73.40;;;;;;5056121;28;20043;-78
2023/07/24 11:13:52;;;;;;;0.50;0.50;;;36.80;75.30;;;;;;5056191;28;20056;-77
2023/07/24 11:16:18;;;;;;;0.90;0.50;;;34.10;73.00;;;;;;5056180;28;20121;-77
2023/07/24 11:18:47;;;;;;;0.60;0.47;;;34.10;74.20;;;;;;5055920;28;20320;-78
2023/07/24 11:21:13;;;;;;;4.05;3.70;;;34.50;73.60;;;;;;5055928;28;20051;-76
2023/07/24 11:23:45;;;;;;;0.75;0.40;;;35.40;74.50;;;;;;5045596;28;20024;-77
2023/07/24 11:26:11;;;;;;;0.98;0.85;;;35.30;73.10;;;;;;5078914;28;20089;-77
2023/07/24 11:28:40;;;;;;;0.25;0.25;;;35.20;73.30;;;;;;5061806;28;20028;-79
2023/07/24 11:31:06;;;;;;;0.28;0.28;;;35.50;72.20;;;;;;5078912;28;20136;-76
2023/07/24 11:33:33;;;;;;;0.75;0.75;;;35.80;69.10;;;;;;5078928;28;20621;-78
2023/07/24 11:35:59;;;;;;;0.30;0.30;;;35.90;70.10;;;;;;5078903;28;20108;-85
2023/07/24 11:38:25;;;;;;;1.27;0.93;;;35.90;69.50;;;;;;5079936;28;20028;-89
2023/07/24 11:41:07;;;;;;;0.77;0.65;;;36.10;69.80;;;;;;5078941;28;20023;-77
2023/07/24 11:43:33;;;;;;;1.05;0.90;;;36.40;70.30;;;;;;5060268;28;20020;-77
2023/07/24 11:45:59;;;;;;;0.17;0.17;;;36.80;70.50;;;;;;5060490;28;20023;-79
2023/07/24 11:48:25;;;;;;;0.10;0.10;;;37.00;68.40;;;;;;5060422;28;20028;-75
2023/07/24 11:50:53;;;;;;;0.20;0.20;;;36.80;69.10;;;;;;5060137;28;20147;-76
2023/07/24 11:53:26;;;;;;;2.92;2.05;;;37.00;67.90;;;;;;5078354;28;20028;-78
2023/07/24 11:55:57;;;;;;;1.45;1.00;;;37.00;67.10;;;;;;5056826;28;20032;-76
2023/07/24 11:58:26;;;;;;;1.30;0.77;;;37.40;65.00;;;;;;5058014;28;20135;-76
2023/07/24 12:00:51;;;;;;;1.13;0.75;;;37.70;63.80;;;;;;5057088;28;20124;-76
2023/07/24 12:03:22;;;;;;;0.10;0.10;;;38.10;63.70;;;;;;5058151;28;20100;-84
2023/07/24 12:05:48;;;;;;;1.00;0.70;;;38.30;62.00;;;;;;5057765;28;20112;-76
2023/07/24 12:08:14;;;;;;;0.73;0.70;;;38.30;61.30;;;;;;5058541;28;20029;-76
2023/07/24 12:10:40;;;;;;;0.38;0.38;;;38.30;60.50;;;;;;5057063;28;20024;-76
2023/07/24 12:13:06;;;;;;;1.75;0.68;;;38.50;59.90;;;;;;5056677;28;20427;-80
2023/07/24 12:15:37;;;;;;;0.60;0.52;;;38.40;61.50;;;;;;5056810;28;20104;-77
2023/07/24 12:18:03;;;;;;;0.52;0.50;;;38.80;61.60;;;;;;5056987;28;20024;-80
2023/07/24 12:20:30;;;;;;;2.83;1.15;;;38.90;61.90;;;;;;5056485;28;20752;-75
2023/07/24 12:22:57;;;;;;;1.83;1.20;;;39.60;60.60;;;;;;5056338;28;20585;-76
2023/07/24 12:25:23;;;;;;;0.43;0.40;;;40.00;59.80;;;;;;5057780;28;20020;-76
2023/07/24 12:27:49;;;;;;;1.15;0.22;;;39.90;59.30;;;;;;5056149;28;20513;-76
2023/07/24 12:30:15;;;;;;;1.02;0.57;;;40.10;58.40;;;;;;5057936;28;20666;-75
2023/07/24 12:32:41;;;;;;;1.05;0.88;;;40.00;59.20;;;;;;5056369;28;20036;-76
2023/07/24 12:35:09;;;;;;;0.77;0.60;;;39.90;59.40;;;;;;5056410;28;20090;-76
2023/07/24 12:37:34;;;;;;;1.55;0.90;;;39.60;58.80;;;;;;5056487;28;20128;-76
2023/07/24 12:40:00;;;;;;;2.63;0.82;;;39.50;59.30;;;;;;5057714;28;20112;-76
2023/07/24 12:42:26;;;;;;;2.40;0.75;;;39.10;59.80;;;;;;5057746;28;20070;-76
2023/07/24 12:44:52;;;;;;;2.47;1.30;;;38.70;60.40;;;;;;5056648;28;20016;-76